Time;durP1;ratioP1;P1;durP2;ratioP2;P2;SDS_P1;SDS_P2;PMS_P1;PMS_P2;Temp;Humidity;BMP_temperature;BMP_pressure;BME280_temperature;BME280_humidity;BME280_pressure;Samples;Min_cycle;Max_cycle;Signal;HPM_P1;HPM_P2
2023/10/17 00:02:11;;;;;;;3.28;1.77;;;;;;;;;;5020700;28;20103;-86
2023/10/17 00:04:40;;;;;;;4.55;2.05;;;;;;;;;;5024090;28;20430;-87
2023/10/17 00:07:08;;;;;;;4.80;1.90;;;6.20;95.40;;;;;;5037285;28;20104;-87
2023/10/17 00:09:36;;;;;;;;;;;;;;;;;;5045050;28;20028;-87
2023/10/17 00:12:25;;;;;;;5.38;1.73;;;;;;;;;;5012820;28;19971;-87
2023/10/17 00:17:21;;;;;;;5.63;1.92;;;;;;;;;;5048383;28;20029;-85
2023/10/17 00:19:51;;;;;;;2.45;1.83;;;;;;;;;;5035452;28;20021;-87
2023/10/17 00:22:23;;;;;;;4.95;2.45;;;;;;;;;;5012162;28;20033;-87
2023/10/17 00:24:57;;;;;;;3.00;2.00;;;;;;;;;;5013957;28;20021;-87
2023/10/17 00:27:23;;;;;;;4.70;2.08;;;;;;;;;;5030181;28;20041;-86
2023/10/17 00:29:49;;;;;;;3.63;1.90;;;;;;;;;;5007448;28;20442;-90
2023/10/17 00:32:15;;;;;;;3.75;2.22;;;;;;;;;;5043709;28;20478;-91
2023/10/17 00:34:43;;;;;;;4.15;2.13;;;;;;;;;;5015919;28;20021;-91
2023/10/17 00:37:19;;;;;;;3.10;2.33;;;;;;;;;;5046498;28;20045;-88
2023/10/17 00:39:47;;;;;;;8.68;2.72;;;;;;;;;;5003495;28;20054;-91
2023/10/17 00:42:34;;;;;;;5.97;2.05;;;;;;;;;;5024034;28;20072;-89
2023/10/17 00:45:00;;;;;;;3.75;2.63;;;;;;;;;;5040106;28;20017;-91
2023/10/17 00:47:28;;;;;;;4.60;2.17;;;;;;;;;;5066919;28;20032;-91
2023/10/17 00:49:54;;;;;;;;;;;;;;;;;;5021911;28;20021;-90
2023/10/17 00:52:29;;;;;;;5.20;2.80;;;;;;;;;;5024597;28;19920;-90
2023/10/17 00:54:55;;;;;;;3.40;2.22;;;;;;;;;;5006908;28;20030;-90
2023/10/17 00:57:23;;;;;;;4.70;2.67;;;;;;;;;;5002246;28;20460;-90
2023/10/17 00:59:50;;;;;;;6.80;2.90;;;;;;;;;;5015576;28;20033;-91
2023/10/17 01:02:22;;;;;;;5.95;2.20;;;;;;;;;;5049670;28;20075;-90
2023/10/17 01:04:49;;;;;;;5.30;2.47;;;;;;;;;;5035201;28;20024;-90
2023/10/17 01:07:31;;;;;;;5.47;2.35;;;;;;;;;;5009920;28;20038;-90
2023/10/17 01:10:09;;;;;;;7.22;3.03;;;;;;;;;;5009975;28;20088;-91
2023/10/17 01:12:45;;;;;;;3.90;2.65;;;;;;;;;;5020922;28;20041;-90
2023/10/17 01:15:19;;;;;;;8.25;2.60;;;;;;;;;;5017071;28;20056;-88
2023/10/17 01:17:45;;;;;;;7.15;3.45;;;;;;;;;;4994952;28;20026;-88
2023/10/17 01:20:15;;;;;;;5.57;2.53;;;;;;;;;;5023969;28;20045;-90
2023/10/17 01:22:42;;;;;;;4.20;2.17;;;;;;;;;;5022291;28;20121;-89
2023/10/17 01:25:21;;;;;;;4.05;2.30;;;;;;;;;;5023169;28;20031;-89
2023/10/17 01:27:48;;;;;;;5.22;2.80;;;;;;;;;;5002851;28;20061;-89
2023/10/17 01:30:16;;;;;;;3.85;2.65;;;;;;;;;;4993064;28;20034;-90
2023/10/17 01:32:44;;;;;;;4.47;2.30;;;;;;;;;;5028692;28;20045;-90
2023/10/17 01:35:11;;;;;;;;;;;;;;;;;;4992657;28;20035;-91
2023/10/17 01:37:37;;;;;;;;;;;;;;;;;;5035455;28;19958;-91
2023/10/17 01:40:10;;;;;;;3.97;2.38;;;;;;;;;;5011322;28;19905;-90
2023/10/17 01:42:38;;;;;;;4.45;2.50;;;;;;;;;;5018184;28;20089;-87
2023/10/17 01:45:10;;;;;;;5.50;2.92;;;;;;;;;;5024133;28;20098;-88
2023/10/17 01:47:38;;;;;;;10.20;2.97;;;;;;;;;;4996451;28;20061;-87
2023/10/17 01:50:05;;;;;;;5.22;2.63;;;;;;;;;;5012572;28;20038;-88
2023/10/17 01:52:31;;;;;;;8.33;3.07;;;;;;;;;;4996051;28;20026;-88
2023/10/17 01:54:59;;;;;;;6.43;2.17;;;;;;;;;;5008950;28;20264;-87
2023/10/17 01:57:27;;;;;;;7.13;2.47;;;;;;;;;;5006019;28;20033;-88
2023/10/17 01:59:53;;;;;;;6.53;2.72;;;;;;;;;;4999857;28;20046;-87
2023/10/17 02:02:23;;;;;;;3.78;1.95;;;;;;;;;;5015892;28;20495;-89
2023/10/17 02:04:50;;;;;;;5.22;2.08;;;;;;;;;;4996369;28;20060;-89
2023/10/17 02:07:18;;;;;;;5.88;1.63;;;;;;;;;;5013854;28;20364;-88
2023/10/17 02:09:44;;;;;;;3.63;1.88;;;;;;;;;;4995188;28;20483;-89
2023/10/17 02:12:12;;;;;;;2.70;1.88;;;;;;;;;;5034795;28;20036;-89
2023/10/17 02:14:39;;;;;;;3.17;1.90;;;;;;;;;;4985807;28;1356020;-89
2023/10/17 02:17:06;;;;;;;4.47;1.75;;;;;;;;;;5010129;28;20069;-91
2023/10/17 02:19:33;;;;;;;3.67;2.03;;;;;;;;;;5010304;28;20717;-90
2023/10/17 02:22:00;;;;;;;3.53;2.00;;;;;;;;;;5031718;28;20021;-90
2023/10/17 02:24:29;;;;;;;6.30;1.90;;;;;;;;;;5020142;28;20870;-87
2023/10/17 02:26:56;;;;;;;5.07;2.13;;;;;;;;;;5035647;28;20044;-90
2023/10/17 02:29:26;;;;;;;4.47;1.93;;;;;;;;;;5022529;28;20512;-91
2023/10/17 02:31:52;;;;;;;4.45;2.03;;;;;;;;;;5028368;28;20022;-90
2023/10/17 02:34:22;;;;;;;5.45;2.28;;;;;;;;;;5036079;28;20032;-90
2023/10/17 02:36:55;;;;;;;4.13;2.00;;;;;;;;;;5056395;28;20086;-91
2023/10/17 02:39:21;;;;;;;6.07;2.00;;;;;;;;;;5025572;28;20490;-90
2023/10/17 02:41:57;;;;;;;3.00;2.03;;;;;;;;;;5039272;28;20029;-91
2023/10/17 02:44:24;;;;;;;5.53;2.00;;;;;;;;;;5048905;28;20074;-91
2023/10/17 02:46:50;;;;;;;5.32;1.83;;;;;;;;;;5019783;28;20031;-92
2023/10/17 02:49:17;;;;;;;3.65;2.28;;;;;;;;;;5043491;28;20040;-91
2023/10/17 02:51:43;;;;;;;4.78;1.92;;;;;;;;;;5025410;28;20025;-93
2023/10/17 02:54:16;;;;;;;6.70;2.13;;;;;;;;;;5046027;28;20094;-90
2023/10/17 02:56:51;;;;;;;3.15;2.10;;;;;;;;;;5022314;28;20029;-92
2023/10/17 02:59:18;;;;;;;3.38;2.00;;;;;;;;;;5029505;28;20021;-89
2023/10/17 03:01:45;;;;;;;7.32;1.85;;;;;;;;;;5039694;28;20035;-89
2023/10/17 03:04:17;;;;;;;4.70;2.00;;;;;;;;;;5043940;28;20030;-92
2023/10/17 03:06:44;;;;;;;3.10;1.95;;;;;;;;;;5041571;28;20017;-90
2023/10/17 03:12:06;;;;;;;2.83;1.80;;;;;;;;;;5057043;28;20021;-91
2023/10/17 03:15:18;;;;;;;5.10;1.80;;;;;;;;;;5032296;28;20057;-91
2023/10/17 03:17:19;;;;;;;4.03;2.75;;;;;;;;;;5031711;28;20482;-90
2023/10/17 03:19:45;;;;;;;3.83;2.05;;;;;;;;;;5032441;28;20093;-90
2023/10/17 03:22:26;;;;;;;4.13;2.00;;;;;;;;;;5008108;28;20026;-90
2023/10/17 03:25:01;;;;;;;5.07;2.03;;;;;;;;;;5049734;28;20031;-90
2023/10/17 03:27:35;;;;;;;4.68;1.92;;;;;;;;;;5042747;28;20026;-89
2023/10/17 03:30:05;;;;;;;2.88;2.10;;;;;;;;;;5034174;28;20061;-89
2023/10/17 03:32:33;;;;;;;7.18;2.30;;;;;;;;;;5036094;28;20026;-90
2023/10/17 03:34:59;;;;;;;4.47;2.05;;;;;;;;;;5047649;28;20089;-87
2023/10/17 03:39:56;;;;;;;3.67;2.40;;;;;;;;;;5049941;28;20041;-89
2023/10/17 03:42:31;;;;;;;3.13;1.55;;;;;;;;;;5028687;28;20039;-89
2023/10/17 03:44:58;;;;;;;2.92;1.60;;;;;;;;;;5008228;28;20025;-88
2023/10/17 03:47:26;;;;;;;3.03;1.98;;;;;;;;;;5007463;28;20026;-89
2023/10/17 03:49:56;;;;;;;3.97;1.98;;;;;;;;;;5038233;28;20547;-89
2023/10/17 03:52:22;;;;;;;5.45;1.70;;;;;;;;;;5021377;28;20693;-89
2023/10/17 03:54:50;;;;;;;3.30;1.80;;;;;;;;;;5048657;28;20449;-88
2023/10/17 03:57:16;;;;;;;3.70;2.45;;;;;;;;;;5011844;28;20092;-88
2023/10/17 03:59:52;;;;;;;4.15;1.70;;;;;;;;;;5040965;28;20371;-90
2023/10/17 04:02:19;;;;;;;3.35;1.52;;;;;;;;;;5030611;28;20042;-89
2023/10/17 04:04:55;;;;;;;3.50;2.07;;;;;;;;;;5053916;28;20025;-87
2023/10/17 04:07:29;;;;;;;5.20;2.10;;;;;;;;;;5002535;28;20330;-91
2023/10/17 04:12:48;;;;;;;3.90;2.03;;;;;;;;;;5052472;28;20123;-91
2023/10/17 04:15:18;;;;;;;2.78;1.65;;;;;;;;;;5024219;28;20029;-87
2023/10/17 04:17:48;;;;;;;6.10;1.95;;;;;;;;;;5034542;28;20030;-88
2023/10/17 04:20:16;;;;;;;4.60;2.10;;;;;;;;;;5030692;28;20028;-88
2023/10/17 04:22:46;;;;;;;5.03;2.28;;;;;;;;;;5023088;28;20490;-88
2023/10/17 04:25:34;;;;;;;9.88;2.63;;;;;;;;;;5037352;28;20036;-86
2023/10/17 04:28:01;;;;;;;2.50;1.85;;;;;;;;;;5005702;28;20034;-88
2023/10/17 04:30:34;;;;;;;5.38;2.55;;;;;;;;;;5020588;28;20056;-89
2023/10/17 04:33:12;;;;;;;3.65;2.33;;;;;;;;;;5045238;28;20417;-89
2023/10/17 04:35:47;;;;;;;5.35;2.15;;;;;;;;;;5030653;28;20029;-87
2023/10/17 04:38:26;;;;;;;4.15;2.05;;;;;;;;;;5051565;28;20040;-90
2023/10/17 04:44:02;;;;;;;3.70;1.70;;;;;;;;;;5041536;28;20072;-88
2023/10/17 04:46:29;;;;;;;3.45;2.30;;;;;;;;;;5035742;28;20072;-88
2023/10/17 04:49:06;;;;;;;2.88;2.13;;;;;;;;;;5049881;28;20017;-88
2023/10/17 04:51:38;;;;;;;;;;;;;;;;;;5031741;28;20033;-90
2023/10/17 04:54:17;;;;;;;3.35;2.03;;;;;;;;;;5029554;28;19907;-92
2023/10/17 04:56:55;;;;;;;4.07;2.72;;;;;;;;;;5025268;28;20155;-90
2023/10/17 04:59:41;;;;;;;4.75;2.47;;;;;;;;;;5029551;28;20053;-89
2023/10/17 05:02:49;;;;;;;5.28;3.17;;;;;;;;;;5015889;28;20386;-88
2023/10/17 06:18:52;;;;;;;3.70;2.30;;;;;;;;;;5026482;28;20088;-90
2023/10/17 06:21:18;;;;;;;3.42;2.35;;;;;;;;;;5045821;28;20070;-90
2023/10/17 06:34:19;;;;;;;4.90;2.20;;;;;;;;;;5061795;28;20656;-90
2023/10/17 06:36:49;;;;;;;3.10;2.40;;;;;;;;;;5032877;28;20022;-88
2023/10/17 06:39:26;;;;;;;7.97;2.95;;;;;;;;;;5006640;28;20465;-89
2023/10/17 06:41:56;;;;;;;6.70;2.28;;;;;;;;;;5039419;28;20101;-88
2023/10/17 06:44:22;;;;;;;3.80;2.35;;;;;;;;;;5031152;28;20029;-92
2023/10/17 06:47:07;;;;;;;4.80;1.98;;;;;;;;;;5039441;28;20032;-88
2023/10/17 06:54:42;;;;;;;6.43;2.17;;;;;;;;;;5050463;28;20009;-87
2023/10/17 06:57:24;;;;;;;6.28;2.30;;;;;;;;;;5040860;28;20071;-91
2023/10/17 06:59:52;;;;;;;2.83;1.77;;;;;;;;;;5012682;28;20042;-84
2023/10/17 07:02:19;;;;;;;6.70;2.17;;;;;;;;;;5035425;28;20363;-83
2023/10/17 07:04:51;;;;;;;12.48;4.28;;;;;;;;;;5024892;28;20018;-82
2023/10/17 07:07:22;;;;;;;3.38;2.15;;;;;;;;;;5027019;28;20360;-81
2023/10/17 07:09:52;;;;;;;9.77;3.13;;;;;;;;;;5027042;28;20034;-84
2023/10/17 07:12:20;;;;;;;2.83;1.90;;;;;;;;;;5013083;28;20018;-83
2023/10/17 07:14:51;;;;;;;6.10;2.47;;;;;;;;;;5019503;28;20473;-83
2023/10/17 07:17:28;;;;;;;3.53;2.20;;;;;;;;;;5033975;28;20068;-82
2023/10/17 07:20:12;;;;;;;6.47;2.22;;;;;;;;;;5014739;28;20038;-85
2023/10/17 07:22:40;;;;;;;4.20;2.25;;;;;;;;;;5022624;28;20029;-85
2023/10/17 07:25:17;;;;;;;5.28;3.03;;;;;;;;;;5006370;28;20021;-84
2023/10/17 07:27:44;;;;;;;7.72;2.10;;;;;;;;;;5029204;28;20077;-83
2023/10/17 07:30:13;;;;;;;2.85;2.15;;;;;;;;;;5004587;28;20049;-84
2023/10/17 07:32:45;;;;;;;2.70;2.17;;;;;;;;;;5008120;28;20049;-84
2023/10/17 07:35:16;;;;;;;8.15;2.45;;;;;;;;;;5023890;28;20022;-82
2023/10/17 07:37:53;;;;;;;4.10;1.80;;;;;;;;;;5035578;28;20033;-84
2023/10/17 07:40:22;;;;;;;6.63;2.38;;;;;;;;;;5033433;28;20021;-81
2023/10/17 07:42:49;;;;;;;6.03;2.72;;;;;;;;;;4999742;28;20014;-82
2023/10/17 07:45:15;;;;;;;4.93;2.78;;;;;;;;;;5013629;28;20029;-83
2023/10/17 07:47:54;;;;;;;2.78;2.13;;;;;;;;;;5013873;28;20554;-84
2023/10/17 07:50:25;;;;;;;4.68;2.03;;;;;;;;;;5016395;28;20045;-83
2023/10/17 07:52:51;;;;;;;4.60;2.10;;;;;;;;;;5026211;28;20699;-83
2023/10/17 07:55:19;;;;;;;5.32;1.95;;;;;;;;;;5027581;28;20022;-83
2023/10/17 07:58:09;;;;;;;11.43;5.68;;;;;;;;;;4999886;28;20018;-81
2023/10/17 08:00:36;;;;;;;5.72;2.08;;;;;;;;;;5022737;28;20128;-85
2023/10/17 08:03:15;;;;;;;3.47;1.73;;;;;;;;;;5025517;28;20032;-86
2023/10/17 08:08:33;;;;;;;3.10;1.45;;;;;;;;;;5021141;28;20041;-83
2023/10/17 08:10:59;;;;;;;3.20;1.48;;;;;;;;;;5020535;28;20036;-82
2023/10/17 08:13:28;;;;;;;4.63;2.03;;;;;;;;;;5024198;28;20096;-82
2023/10/17 08:15:55;;;;;;;4.82;1.83;;;;;;;;;;5028540;28;20034;-81
2023/10/17 08:18:28;;;;;;;2.30;1.40;;;;;;;;;;5033527;28;20061;-83
2023/10/17 08:21:16;;;;;;;2.38;1.73;;;;;;;;;;5003685;28;20014;-83
2023/10/17 08:23:40;;;;;;;2.95;2.08;;;;;;;;;;5036199;28;20036;-82
2023/10/17 08:26:10;;;;;;;1.87;1.30;;;;;;;;;;5026516;28;20037;-82
2023/10/17 08:36:49;;;;;;;4.82;1.73;;;;;;;;;;5024990;28;20516;-81
2023/10/17 08:41:57;;;;;;;3.85;1.98;;;;;;;;;;5032223;28;20030;-83
2023/10/17 08:44:29;;;;;;;2.70;1.65;;;;;;;;;;5017934;28;20022;-82
2023/10/17 08:46:55;;;;;;;3.75;1.92;;;;;;;;;;5028210;28;20028;-83
2023/10/17 08:49:22;;;;;;;4.07;1.63;;;;;;;;;;5034878;28;20037;-83
2023/10/17 08:51:51;;;;;;;3.65;1.60;;;;;;;;;;5039443;28;20025;-84
2023/10/17 08:54:20;;;;;;;5.53;1.80;;;;;;;;;;5040593;28;20022;-82
2023/10/17 08:56:50;;;;;;;2.25;1.65;;;;;;;;;;5016085;28;20036;-81
2023/10/17 08:59:16;;;;;;;4.05;1.70;;;;;;;;;;5022901;28;20065;-83
2023/10/17 09:02:14;;;;;;;4.10;1.98;;;;;;;;;;5017887;28;20032;-82
2023/10/17 09:04:42;;;;;;;3.20;2.08;;;;;;;;;;5015939;28;20425;-83
2023/10/17 09:07:14;;;;;;;1.85;1.10;;;;;;;;;;5016813;28;20049;-84
2023/10/17 09:09:42;;;;;;;4.03;1.88;;;;;;;;;;5018811;28;20455;-87
2023/10/17 09:12:21;;;;;;;3.85;2.05;;;;;;;;;;5018312;28;20025;-83
2023/10/17 09:14:52;;;;;;;3.42;1.48;;;;;;;;;;5016731;28;20037;-82
2023/10/17 09:19:51;;;;;;;2.20;1.25;;;;;;;;;;5031858;28;20500;-84
2023/10/17 09:22:20;;;;;;;3.50;1.90;;;;;;;;;;5031224;28;20029;-83
2023/10/17 09:24:49;;;;;;;6.05;1.67;;;;;;;;;;5016058;28;20029;-83
2023/10/17 09:27:16;;;;;;;3.42;1.23;;;;;;;;;;5043529;28;20489;-80
2023/10/17 09:29:47;;;;;;;2.47;1.52;;;;;;;;;;5021310;28;20424;-80
2023/10/17 09:32:32;;;;;;;2.65;1.27;;;;;;;;;;5030069;28;20099;-80
2023/10/17 09:34:59;;;;;;;2.55;1.40;;;;;;;;;;5024902;28;20410;-85
2023/10/17 09:37:27;;;;;;;1.52;0.98;;;;;;;;;;5017704;28;20467;-82
2023/10/17 09:39:54;;;;;;;3.80;2.33;;;;;;;;;;5028213;28;20445;-85
2023/10/17 09:42:20;;;;;;;;;;;;;;;;;;5023428;28;20345;-81
2023/10/17 09:44:46;;;;;;;1.83;1.10;;;;;;;;;;5014481;28;19983;-83
2023/10/17 09:47:14;;;;;;;2.38;1.50;;;;;;;;;;5026635;28;20406;-84
2023/10/17 09:49:45;;;;;;;2.05;1.20;;;;;;;;;;5025044;28;20022;-83
2023/10/17 09:52:14;;;;;;;3.63;1.75;;;;;;;;;;5002001;28;20029;-83
2023/10/17 09:54:41;;;;;;;1.30;1.02;;;;;;;;;;5016647;28;20026;-80
2023/10/17 09:57:15;;;;;;;2.88;2.33;;;;;;;;;;4997093;28;20399;-82
2023/10/17 09:59:44;;;;;;;3.78;1.80;;;;;;;;;;5016249;28;20025;-87
2023/10/17 10:02:12;;;;;;;2.22;1.20;;;;;;;;;;4997638;28;20471;-83
2023/10/17 10:04:38;;;;;;;;;;;;;;;;;;5015633;28;20426;-84
2023/10/17 10:07:23;;;;;;;3.05;1.83;;;;;;;;;;4997406;28;19905;-86
2023/10/17 10:09:49;;;;;;;2.97;1.33;;;;;;;;;;5014803;28;20120;-85
2023/10/17 10:12:15;;;;;;;1.77;1.42;;;;;;;;;;5018416;28;20018;-85
2023/10/17 10:14:45;;;;;;;1.77;1.20;;;;;;;;;;5009553;28;20059;-84
2023/10/17 10:17:13;;;;;;;4.95;1.65;;;;;;;;;;5028514;28;20021;-85
2023/10/17 10:19:43;;;;;;;2.97;1.10;;;;;;;;;;5014591;28;20037;-87
2023/10/17 10:22:10;;;;;;;2.92;1.40;;;;;;;;;;5013906;28;20371;-83
2023/10/17 10:24:37;;;;;;;3.35;1.30;;;;;;;;;;5030384;28;20033;-85
2023/10/17 10:27:09;;;;;;;2.50;1.00;;;;;;;;;;5022994;28;20540;-83
2023/10/17 10:29:35;;;;;;;3.53;0.98;;;;;;;;;;5020660;28;20030;-82
2023/10/17 10:32:08;;;;;;;1.73;1.02;;;;;;;;;;5040846;28;20032;-83
2023/10/17 10:34:38;;;;;;;2.45;1.63;;;;;;;;;;5028185;28;20053;-86
2023/10/17 10:37:08;;;;;;;4.70;1.50;;;;;;;;;;5022383;28;20034;-86
2023/10/17 10:39:35;;;;;;;4.45;1.52;;;;;;;;;;5021840;28;20080;-85
2023/10/17 10:42:05;;;;;;;4.38;1.45;;;;;;;;;;5027682;28;20021;-85
2023/10/17 10:44:40;;;;;;;1.90;1.23;;;;;;;;;;5018611;28;20036;-86
2023/10/17 10:47:06;;;;;;;5.05;1.52;;;;;;;;;;5023166;28;20013;-86
2023/10/17 10:49:32;;;;;;;3.75;1.45;;;;;;;;;;5033578;28;20390;-84
2023/10/17 10:51:58;;;;;;;3.22;1.30;;;;;;;;;;5029753;28;20037;-85
2023/10/17 10:54:27;;;;;;;7.75;1.55;;;;;;;;;;5023708;28;20022;-86
2023/10/17 10:56:53;;;;;;;6.40;2.70;;;;;;;;;;5036927;28;20044;-86
2023/10/17 10:59:23;;;;;;;3.97;1.85;;;;;;;;;;5037194;28;20053;-86
2023/10/17 11:01:49;;;;;;;8.05;2.38;;;;;;;;;;5037445;28;20018;-84
2023/10/17 11:04:15;;;;;;;2.25;1.33;;;;;;;;;;5015981;28;20089;-82
2023/10/17 11:06:42;;;;;;;2.60;2.05;;;;;;;;;;5015285;28;20145;-84
2023/10/17 11:09:15;;;;;;;5.65;1.65;;;;;;;;;;5018470;28;20026;-84
2023/10/17 11:11:45;;;;;;;3.97;1.00;;;;;;;;;;5021886;28;20026;-85
2023/10/17 11:14:17;;;;;;;11.50;2.97;;;;;;;;;;5023667;28;20037;-87
2023/10/17 11:16:44;;;;;;;6.40;2.65;;;;;;;;;;5038732;28;20127;-82
2023/10/17 11:19:19;;;;;;;3.38;1.30;;;;;;;;;;5017609;28;20048;-82
2023/10/17 11:21:52;;;;;;;6.15;1.90;;;;;;;;;;5015708;28;20025;-86
2023/10/17 11:24:19;;;;;;;2.13;1.40;;;;;;;;;;5014964;28;20032;-86
2023/10/17 11:26:45;;;;;;;2.70;1.43;;;;;;;;;;4999081;28;20029;-84
2023/10/17 11:29:12;;;;;;;3.58;1.55;;;;;;;;;;5016793;28;20022;-85
2023/10/17 11:31:41;;;;;;;2.83;1.80;;;;;;;;;;5013720;28;20029;-87
2023/10/17 11:34:08;;;;;;;2.78;1.58;;;;;;;;;;5017603;28;20053;-85
2023/10/17 11:36:45;;;;;;;2.72;1.88;;;;;;;;;;5013329;28;20014;-84
2023/10/17 11:39:15;;;;;;;;;;;;;;;;;;5045157;28;20037;-84
2023/10/17 11:41:52;;;;;;;5.00;1.48;;;;;;;;;;5037847;28;19912;-84
2023/10/17 11:44:23;;;;;;;3.03;0.95;;;;;;;;;;5023745;28;20053;-83
2023/10/17 11:46:58;;;;;;;3.42;1.95;;;;;;;;;;5025284;28;20049;-84
2023/10/17 11:49:28;;;;;;;4.15;1.77;;;;;;;;;;5030508;28;20379;-83
2023/10/17 11:52:01;;;;;;;4.57;2.10;;;;;;;;;;5017339;28;20022;-85
2023/10/17 11:54:27;;;;;;;2.92;1.58;;;;;;;;;;5019716;28;20144;-85
2023/10/17 11:56:57;;;;;;;4.05;1.50;;;;;;;;;;5015948;28;20018;-85
2023/10/17 11:59:23;;;;;;;2.92;1.90;;;;;;;;;;5024860;28;20030;-86
2023/10/17 12:01:52;;;;;;;3.10;1.85;;;;;;;;;;5024322;28;20065;-85
2023/10/17 12:04:19;;;;;;;2.50;1.38;;;;;;;;;;5025565;28;20032;-85
2023/10/17 12:06:48;;;;;;;4.07;2.17;;;;;;;;;;5027275;28;20026;-85
2023/10/17 12:09:18;;;;;;;3.15;1.38;;;;;;;;;;5007861;28;20038;-89
2023/10/17 12:11:47;;;;;;;2.65;1.40;;;;;;;;;;5034920;28;20025;-86
2023/10/17 12:14:20;;;;;;;2.50;1.15;;;;;;;;;;5027142;28;20376;-85
2023/10/17 12:16:54;;;;;;;3.97;1.85;;;;;;;;;;5036216;28;20025;-86
2023/10/17 12:19:26;;;;;;;12.00;5.95;;;;;;;;;;5018345;28;20061;-85
2023/10/17 12:21:53;;;;;;;5.05;2.38;;;;;;;;;;5022592;28;20030;-84
2023/10/17 12:24:21;;;;;;;4.13;1.92;;;;;;;;;;5019030;28;20032;-84
2023/10/17 12:26:47;;;;;;;;;;;;;;;;;;5031609;28;20439;-82
2023/10/17 12:29:13;;;;;;;3.53;1.48;;;;;;;;;;5026721;28;19905;-84
2023/10/17 12:31:40;;;;;;;6.18;2.05;;;;;;;;;;5045724;28;20030;-83
2023/10/17 12:34:10;;;;;;;3.22;1.40;;;;;;;;;;5037700;28;20041;-85
2023/10/17 12:36:37;;;;;;;3.78;1.90;;;;;;;;;;5029817;28;20427;-82
2023/10/17 12:39:03;;;;;;;5.47;1.42;;;;;;;;;;5017998;28;20372;-85
2023/10/17 12:41:30;;;;;;;2.47;1.47;;;;;;;;;;5022939;28;20021;-85
2023/10/17 12:43:56;;;;;;;5.97;3.22;;;;;;;;;;5022150;28;20033;-87
2023/10/17 12:46:22;;;;;;;6.30;1.85;;;;;;;;;;5008610;28;20121;-85
2023/10/17 12:48:48;;;;;;;3.80;1.75;;;;;;;;;;5017167;28;20026;-85
2023/10/17 12:51:14;;;;;;;1.30;1.08;;;;;;;;;;5022542;28;20029;-83
2023/10/17 12:53:40;;;;;;;2.33;1.88;;;;;;;;;;5020548;28;20034;-86
2023/10/17 12:56:11;;;;;;;2.13;1.08;;;;;;;;;;5025497;28;20026;-83
2023/10/17 12:58:37;;;;;;;2.47;1.17;;;;;;;;;;5015694;28;20042;-88
2023/10/17 13:01:07;;;;;;;2.30;1.30;;;;;;;;;;5018038;28;20709;-82
2023/10/17 13:03:34;;;;;;;3.65;1.40;;;;;;;;;;5021315;28;20068;-84
2023/10/17 13:06:02;;;;;;;5.80;2.25;;;;;;;;;;5027684;28;20018;-82
2023/10/17 13:08:28;;;;;;;5.25;1.48;;;;;;;;;;5031385;28;20037;-84
2023/10/17 13:10:55;;;;;;;3.40;1.75;;;;;;;;;;5024689;28;20022;-83
2023/10/17 13:13:22;;;;;;;5.80;1.83;;;;;;;;;;5030049;28;20030;-83
2023/10/17 13:15:48;;;;;;;3.67;1.50;;;;;;;;;;5025081;28;20104;-85
2023/10/17 13:18:15;;;;;;;4.85;1.58;;;;;;;;;;5022297;28;20026;-82
2023/10/17 13:20:50;;;;;;;2.10;0.80;;;;;;;;;;5039200;28;20030;-85
2023/10/17 13:23:16;;;;;;;2.03;1.30;;;;;;;;;;5011915;28;20108;-85
2023/10/17 13:25:43;;;;;;;1.45;1.30;;;;;;;;;;5001015;28;20106;-84
2023/10/17 13:28:10;;;;;;;5.53;4.18;;;;;;;;;;5026205;28;20018;-84
2023/10/17 13:30:36;;;;;;;2.92;1.33;;;;;;;;;;5027434;28;20052;-84
2023/10/17 13:33:03;;;;;;;0.82;0.63;;;;;;;;;;5030251;28;20392;-86
2023/10/17 13:35:30;;;;;;;1.42;0.95;;;;;;;;;;5014166;28;20025;-86
2023/10/17 13:37:58;;;;;;;2.60;1.35;;;;;;;;;;5026714;28;20098;-88
2023/10/17 13:40:25;;;;;;;1.67;1.15;;;;;;;;;;5023947;28;20111;-88
2023/10/17 13:42:55;;;;;;;5.27;1.57;;;;;;;;;;5017668;28;20547;-86
2023/10/17 13:45:21;;;;;;;1.70;0.93;;;;;;;;;;5018024;28;20032;-86
2023/10/17 13:47:51;;;;;;;1.45;0.80;;;;;;;;;;5028334;28;20052;-86
2023/10/17 13:50:19;;;;;;;3.95;1.40;;;;;;;;;;5022119;28;20014;-90
2023/10/17 13:52:54;;;;;;;1.60;1.05;;;;;;;;;;5017259;28;20448;-83
2023/10/17 13:55:27;;;;;;;1.20;0.88;;;;;;;;;;5030710;28;20017;-84
2023/10/17 13:58:01;;;;;;;4.07;1.83;;;;;;;;;;5025421;28;20033;-86
2023/10/17 14:00:36;;;;;;;3.15;1.60;;;;;;;;;;5018080;28;20029;-84
2023/10/17 14:03:06;;;;;;;3.28;1.13;;;;;;;;;;5016319;28;20644;-87
2023/10/17 14:05:32;;;;;;;3.38;1.17;;;;;;;;;;5032179;28;20458;-87
2023/10/17 14:07:58;;;;;;;2.95;1.40;;;;;;;;;;5011038;28;20391;-85
2023/10/17 14:10:24;;;;;;;2.08;1.08;;;;;;;;;;5011983;28;20034;-83
2023/10/17 14:12:52;;;;;;;3.60;1.67;;;;;;;;;;5042809;28;20021;-87
2023/10/17 14:15:18;;;;;;;2.80;1.83;;;;;;;;;;5003441;28;20081;-86
2023/10/17 14:17:49;;;;;;;1.88;1.60;;;;;;;;;;5036645;28;20470;-86
2023/10/17 14:20:17;;;;;;;2.65;1.25;;;;;;;;;;5025677;28;20026;-87
2023/10/17 14:23:08;;;;;;;2.50;1.55;;;;;;;;;;5001739;28;20014;-88
2023/10/17 14:28:21;;;;;;;3.30;2.30;;;;;;;;;;5017969;28;20071;-90
2023/10/17 14:30:47;;;;;;;4.28;1.58;;;;;;;;;;5022403;28;20022;-88
2023/10/17 14:33:13;;;;;;;2.25;1.10;;;;;;;;;;4998942;28;20053;-89
2023/10/17 14:35:43;;;;;;;1.45;1.08;;;;;;;;;;4999482;28;20494;-88
2023/10/17 14:38:09;;;;;;;3.38;2.38;;;;;;;;;;5014932;28;20010;-85
2023/10/17 14:40:35;;;;;;;5.68;2.38;;;;;;;;;;5011909;28;20025;-85
2023/10/17 14:43:02;;;;;;;1.48;1.23;;;;;;;;;;5019067;28;20149;-85
2023/10/17 14:45:28;;;;;;;1.10;0.57;;;;;;;;;;5012063;28;20033;-85
2023/10/17 14:47:55;;;;;;;1.48;1.20;;;;;;;;;;5015938;28;20097;-86
2023/10/17 14:50:21;;;;;;;3.20;1.38;;;;;;;;;;5027193;28;20029;-87
2023/10/17 14:52:48;;;;;;;2.88;1.23;;;;;;;;;;5006032;28;20083;-89
2023/10/17 14:55:23;;;;;;;2.30;1.10;;;;;;;;;;5041562;28;20017;-93
2023/10/17 14:57:50;;;;;;;0.90;0.73;;;;;;;;;;5006805;28;20117;-86
2023/10/17 15:00:16;;;;;;;1.23;0.93;;;;;;;;;;5020076;28;20478;-85
2023/10/17 15:02:47;;;;;;;2.38;1.40;;;;;;;;;;5014592;28;20490;-89
2023/10/17 15:05:14;;;;;;;2.63;1.00;;;;;;;;;;5009740;28;20469;-87
2023/10/17 15:07:40;;;;;;;3.65;1.45;;;;;;;;;;5024448;28;20084;-87
2023/10/17 15:10:11;;;;;;;1.88;1.27;;;;;;;;;;5024199;28;20021;-88
2023/10/17 15:12:48;;;;;;;2.25;1.48;;;;;;;;;;5006566;28;20041;-86
2023/10/17 15:15:15;;;;;;;4.38;1.63;;;;;;;;;;5008051;28;20053;-87
2023/10/17 15:17:42;;;;;;;2.17;1.00;;;;;;;;;;5009645;28;20041;-89
2023/10/17 15:20:11;;;;;;;4.82;2.63;;;;;;;;;;5017191;28;20490;-87
2023/10/17 15:22:41;;;;;;;4.97;2.13;;;;;;;;;;5018723;28;20034;-87
2023/10/17 15:25:12;;;;;;;4.43;1.10;;;;;;;;;;5011797;28;20030;-88
2023/10/17 15:27:39;;;;;;;1.90;1.20;;;;;;;;;;5031663;28;20018;-87
2023/10/17 15:30:05;;;;;;;1.83;0.90;;;;;;;;;;5017650;28;20084;-84
2023/10/17 15:32:31;;;;;;;1.95;1.00;;;;;;;;;;5029270;28;20068;-88
2023/10/17 15:34:58;;;;;;;1.10;0.93;;;;;;;;;;5065263;28;20025;-89
2023/10/17 15:37:24;;;;;;;1.00;0.77;;;;;;;;;;5041979;28;20033;-88
2023/10/17 15:39:50;;;;;;;3.28;1.65;;;;;;;;;;5029742;28;20033;-87
2023/10/17 15:42:17;;;;;;;2.13;1.23;;;;;;;;;;5016520;28;20029;-88
2023/10/17 15:44:46;;;;;;;;;;;;;;;;;;5028358;28;20447;-90
2023/10/17 15:47:12;;;;;;;4.05;1.95;;;;;;;;;;5030136;28;20265;-89
2023/10/17 15:49:38;;;;;;;2.15;1.55;;;;;;;;;;5035222;28;20499;-89
2023/10/17 15:52:05;;;;;;;1.67;1.42;;;;;;;;;;5036762;28;20026;-88
2023/10/17 15:54:32;;;;;;;3.08;1.58;;;;;;;;;;5004185;28;20033;-89
2023/10/17 15:56:58;;;;;;;3.00;1.98;;;;;;;;;;5031766;28;20018;-90
2023/10/17 15:59:25;;;;;;;4.20;1.40;;;;;;;;;;5013626;28;20037;-87
2023/10/17 16:01:51;;;;;;;1.73;0.80;;;;;;;;;;5022365;28;20017;-88
2023/10/17 16:04:17;;;;;;;2.17;1.67;;;;;;;;;;5010177;28;20029;-86
2023/10/17 16:06:43;;;;;;;1.35;0.95;;;;;;;;;;5039778;28;20025;-87
2023/10/17 16:09:15;;;;;;;2.72;1.35;;;;;;;;;;5033183;28;20100;-88
2023/10/17 16:11:42;;;;;;;2.17;1.35;;;;;;;;;;5029942;28;20057;-87
2023/10/17 16:14:10;;;;;;;5.82;2.20;;;;;;;;;;5000079;28;20081;-88
2023/10/17 16:16:37;;;;;;;4.70;2.75;;;;;;;;;;5023408;28;20024;-88
2023/10/17 16:19:03;;;;;;;9.40;5.37;;;;;;;;;;5018811;28;20037;-89
2023/10/17 16:21:30;;;;;;;6.57;3.30;;;;;;;;;;5009050;28;20029;-92
2023/10/17 16:23:56;;;;;;;2.20;1.40;;;;;;;;;;5012681;28;20036;-91
2023/10/17 16:26:23;;;;;;;1.45;1.20;;;;;;;;;;5039969;28;20022;-90
2023/10/17 16:28:54;;;;;;;2.17;1.07;;;;;;;;;;5005674;28;20040;-92
2023/10/17 16:31:23;;;;;;;1.60;1.02;;;;;;;;;;5028391;28;20053;-90
2023/10/17 16:33:49;;;;;;;2.92;1.88;;;;;;;;;;5016094;28;20051;-90
2023/10/17 16:36:15;;;;;;;4.35;1.63;;;;;;;;;;5012951;28;20022;-89
2023/10/17 16:38:45;;;;;;;4.50;1.85;;;;;;;;;;5041522;28;20068;-93
2023/10/17 16:41:12;;;;;;;1.50;1.23;;;;;;;;;;5019092;28;20030;-89
2023/10/17 16:43:38;;;;;;;8.50;3.97;;;;;;;;;;5026647;28;20057;-91
2023/10/17 16:46:04;;;;;;;6.40;3.08;;;;;;;;;;5003633;28;20167;-91
2023/10/17 16:48:31;;;;;;;10.20;5.32;;;;;;;;;;5010881;28;20386;-89
2023/10/17 16:50:59;;;;;;;4.27;2.00;;;;;;;;;;5022695;28;20037;-89
2023/10/17 16:53:25;;;;;;;3.83;1.67;;;;;;;;;;5016622;28;20263;-89
2023/10/17 16:55:54;;;;;;;5.60;3.25;;;;;;;;;;5019572;28;20108;-90
2023/10/17 16:58:20;;;;;;;3.97;1.52;;;;;;;;;;5028398;28;20037;-90
2023/10/17 17:00:46;;;;;;;10.63;5.03;;;;;;;;;;5018950;28;20386;-89
2023/10/17 17:03:13;;;;;;;3.33;1.92;;;;;;;;;;5023785;28;20030;-91